Aviation Digital Data Service (ADDS)

Output produced by METARs form (0155 UTC 16 July 2019)
found at http://www.aviationweather.gov/metar/data/
 
METAR text: TXKF 160055Z 25007KT 9999 FEW014 BKN300 27/25 Q1020
Conditions at: TXKF (BERMUDA NAS , BM) observed 0055 UTC 16 July 2019
Temperature: 27.0°C (81°F)
Dewpoint: 25.0°C (77°F) [RH = 89%]
Pressure (altimeter): 30.12 inches Hg (1020.0 mb)
Winds: from the WSW (250 degrees) at 8 MPH (7 knots; 3.6 m/s)
Visibility: 6 or more miles (10+ km)
Ceiling: 30000 feet AGL
Clouds: few clouds at 1400 feet AGL
broken clouds at 30000 feet AGL
Weather: no significant weather observed at this time

METAR text: TXKF 152355Z 27009KT 9999 SCT015 BKN300 28/25 Q1020
Conditions at: TXKF (BERMUDA NAS , BM) observed 2355 UTC 15 July 2019
Temperature: 28.0°C (82°F)
Dewpoint: 25.0°C (77°F) [RH = 84%]
Pressure (altimeter): 30.12 inches Hg (1020.0 mb)
Winds: from the W (270 degrees) at 10 MPH (9 knots; 4.6 m/s)
Visibility: 6 or more miles (10+ km)
Ceiling: 30000 feet AGL
Clouds: scattered clouds at 1500 feet AGL
broken clouds at 30000 feet AGL
Weather: no significant weather observed at this time

METAR text: TXKF 152255Z 26010KT 9999 FEW017 BKN300 28/24 Q1020
Conditions at: TXKF (BERMUDA NAS , BM) observed 2255 UTC 15 July 2019
Temperature: 28.0°C (82°F)
Dewpoint: 24.0°C (75°F) [RH = 79%]
Pressure (altimeter): 30.12 inches Hg (1020.0 mb)
Winds: from the W (260 degrees) at 12 MPH (10 knots; 5.1 m/s)
Visibility: 6 or more miles (10+ km)
Ceiling: 30000 feet AGL
Clouds: few clouds at 1700 feet AGL
broken clouds at 30000 feet AGL
Weather: no significant weather observed at this time

METAR text: TXKF 152155Z 26010KT 9999 SCT018 BKN300 29/24 Q1019
Conditions at: TXKF (BERMUDA NAS , BM) observed 2155 UTC 15 July 2019
Temperature: 29.0°C (84°F)
Dewpoint: 24.0°C (75°F) [RH = 74%]
Pressure (altimeter): 30.09 inches Hg (1019.0 mb)
Winds: from the W (260 degrees) at 12 MPH (10 knots; 5.1 m/s)
Visibility: 6 or more miles (10+ km)
Ceiling: 30000 feet AGL
Clouds: scattered clouds at 1800 feet AGL
broken clouds at 30000 feet AGL
Weather: no significant weather observed at this time

METAR text: TXKF 152055Z 24011KT 9999 FEW021 BKN300 29/24 Q1019
Conditions at: TXKF (BERMUDA NAS , BM) observed 2055 UTC 15 July 2019
Temperature: 29.0°C (84°F)
Dewpoint: 24.0°C (75°F) [RH = 74%]
Pressure (altimeter): 30.09 inches Hg (1019.0 mb)
Winds: from the WSW (240 degrees) at 13 MPH (11 knots; 5.7 m/s)
Visibility: 6 or more miles (10+ km)
Ceiling: 30000 feet AGL
Clouds: few clouds at 2100 feet AGL
broken clouds at 30000 feet AGL
Weather: no significant weather observed at this time

METAR text: TXKF 151955Z 24011KT 9999 FEW021 FEW180 BKN300 29/24 Q1019
Conditions at: TXKF (BERMUDA NAS , BM) observed 1955 UTC 15 July 2019
Temperature: 29.0°C (84°F)
Dewpoint: 24.0°C (75°F) [RH = 74%]
Pressure (altimeter): 30.09 inches Hg (1019.0 mb)
Winds: from the WSW (240 degrees) at 13 MPH (11 knots; 5.7 m/s)
Visibility: 6 or more miles (10+ km)
Ceiling: 30000 feet AGL
Clouds: few clouds at 2100 feet AGL
few clouds at 18000 feet AGL
broken clouds at 30000 feet AGL
Weather: no significant weather observed at this time

METAR text: TXKF 151855Z 24012KT 9999 FEW019 SCT180 BKN300 29/24 Q1020
Conditions at: TXKF (BERMUDA NAS , BM) observed 1855 UTC 15 July 2019
Temperature: 29.0°C (84°F)
Dewpoint: 24.0°C (75°F) [RH = 74%]
Pressure (altimeter): 30.12 inches Hg (1020.0 mb)
Winds: from the WSW (240 degrees) at 14 MPH (12 knots; 6.2 m/s)
Visibility: 6 or more miles (10+ km)
Ceiling: 30000 feet AGL
Clouds: few clouds at 1900 feet AGL
scattered clouds at 18000 feet AGL
broken clouds at 30000 feet AGL
Weather: no significant weather observed at this time

METAR text: TXKF 151755Z 24011KT 9999 SCT019 SCT180 BKN300 30/25 Q1020
Conditions at: TXKF (BERMUDA NAS , BM) observed 1755 UTC 15 July 2019
Temperature: 30.0°C (86°F)
Dewpoint: 25.0°C (77°F) [RH = 75%]
Pressure (altimeter): 30.12 inches Hg (1020.0 mb)
Winds: from the WSW (240 degrees) at 13 MPH (11 knots; 5.7 m/s)
Visibility: 6 or more miles (10+ km)
Ceiling: 30000 feet AGL
Clouds: scattered clouds at 1900 feet AGL
scattered clouds at 18000 feet AGL
broken clouds at 30000 feet AGL
Weather: no significant weather observed at this time

METAR text: TXKF 151655Z 25012KT 9999 SCT018 BKN180 BKN300 29/24 Q1020
Conditions at: TXKF (BERMUDA NAS , BM) observed 1655 UTC 15 July 2019
Temperature: 29.0°C (84°F)
Dewpoint: 24.0°C (75°F) [RH = 74%]
Pressure (altimeter): 30.12 inches Hg (1020.0 mb)
Winds: from the WSW (250 degrees) at 14 MPH (12 knots; 6.2 m/s)
Visibility: 6 or more miles (10+ km)
Ceiling: 18000 feet AGL
Clouds: scattered clouds at 1800 feet AGL
broken clouds at 18000 feet AGL
broken clouds at 30000 feet AGL
Weather: no significant weather observed at this time

METAR text: TXKF 151555Z 21016KT 9999 FEW019 BKN180 BKN300 29/24 Q1020
Conditions at: TXKF (BERMUDA NAS , BM) observed 1555 UTC 15 July 2019
Temperature: 29.0°C (84°F)
Dewpoint: 24.0°C (75°F) [RH = 74%]
Pressure (altimeter): 30.12 inches Hg (1020.0 mb)
Winds: from the SSW (210 degrees) at 18 MPH (16 knots; 8.2 m/s)
Visibility: 6 or more miles (10+ km)
Ceiling: 18000 feet AGL
Clouds: few clouds at 1900 feet AGL
broken clouds at 18000 feet AGL
broken clouds at 30000 feet AGL
Weather: no significant weather observed at this time

METAR text: TXKF 151455Z 22012KT 9999 SCT019 BKN210 BKN300 29/24 Q1021
Conditions at: TXKF (BERMUDA NAS , BM) observed 1455 UTC 15 July 2019
Temperature: 29.0°C (84°F)
Dewpoint: 24.0°C (75°F) [RH = 74%]
Pressure (altimeter): 30.15 inches Hg (1021.0 mb)
Winds: from the SW (220 degrees) at 14 MPH (12 knots; 6.2 m/s)
Visibility: 6 or more miles (10+ km)
Ceiling: 21000 feet AGL
Clouds: scattered clouds at 1900 feet AGL
broken clouds at 21000 feet AGL
broken clouds at 30000 feet AGL
Weather: no significant weather observed at this time

METAR text: TXKF 151355Z 23011KT 9999 SCT018 BKN094 BKN300 28/24 Q1021
Conditions at: TXKF (BERMUDA NAS , BM) observed 1355 UTC 15 July 2019
Temperature: 28.0°C (82°F)
Dewpoint: 24.0°C (75°F) [RH = 79%]
Pressure (altimeter): 30.15 inches Hg (1021.0 mb)
Winds: from the SW (230 degrees) at 13 MPH (11 knots; 5.7 m/s)
Visibility: 6 or more miles (10+ km)
Ceiling: 9400 feet AGL
Clouds: scattered clouds at 1800 feet AGL
broken clouds at 9400 feet AGL
broken clouds at 30000 feet AGL
Weather: no significant weather observed at this time

METAR text: TXKF 151325Z 21016KT 9999 SCT018 BKN026 BKN120 BKN300 28/24 Q1021
Conditions at: TXKF (BERMUDA NAS , BM) observed 1325 UTC 15 July 2019
Temperature: 28.0°C (82°F)
Dewpoint: 24.0°C (75°F) [RH = 79%]
Pressure (altimeter): 30.15 inches Hg (1021.0 mb)
Winds: from the SSW (210 degrees) at 18 MPH (16 knots; 8.2 m/s)
Visibility: 6 or more miles (10+ km)
Ceiling: 2600 feet AGL
Clouds: scattered clouds at 1800 feet AGL
broken clouds at 2600 feet AGL
broken clouds at 12000 feet AGL
broken clouds at 30000 feet AGL
Weather: no significant weather observed at this time

METAR text: TXKF 151255Z 22014KT 9999 SCT017 BKN110 BKN300 28/24 Q1021
Conditions at: TXKF (BERMUDA NAS , BM) observed 1255 UTC 15 July 2019
Temperature: 28.0°C (82°F)
Dewpoint: 24.0°C (75°F) [RH = 79%]
Pressure (altimeter): 30.15 inches Hg (1021.0 mb)
Winds: from the SW (220 degrees) at 16 MPH (14 knots; 7.2 m/s)
Visibility: 6 or more miles (10+ km)
Ceiling: 11000 feet AGL
Clouds: scattered clouds at 1700 feet AGL
broken clouds at 11000 feet AGL
broken clouds at 30000 feet AGL
Weather: no significant weather observed at this time

METAR text: TXKF 151155Z 22014KT 9999 FEW017 SCT220 BKN300 28/24 Q1020 RMK CB TOPS DSNT W-NW
Conditions at: TXKF (BERMUDA NAS , BM) observed 1155 UTC 15 July 2019
Temperature: 28.0°C (82°F)
Dewpoint: 24.0°C (75°F) [RH = 79%]
Pressure (altimeter): 30.12 inches Hg (1020.0 mb)
Winds: from the SW (220 degrees) at 16 MPH (14 knots; 7.2 m/s)
Visibility: 6 or more miles (10+ km)
Ceiling: 30000 feet AGL
Clouds: few clouds at 1700 feet AGL
scattered clouds at 22000 feet AGL
broken clouds at 30000 feet AGL
Weather: no significant weather observed at this time

METAR text: TXKF 151055Z 21015KT 9999 FEW014 FEW100 SCT300 27/24 Q1020 RMK CB TOP DSNT NW
Conditions at: TXKF (BERMUDA NAS , BM) observed 1055 UTC 15 July 2019
Temperature: 27.0°C (81°F)
Dewpoint: 24.0°C (75°F) [RH = 84%]
Pressure (altimeter): 30.12 inches Hg (1020.0 mb)
Winds: from the SSW (210 degrees) at 17 MPH (15 knots; 7.7 m/s)
Visibility: 6 or more miles (10+ km)
Ceiling: at least 12,000 feet AGL
Clouds: few clouds at 1400 feet AGL
few clouds at 10000 feet AGL
scattered clouds at 30000 feet AGL
Weather: no significant weather observed at this time

METAR text: TXKF 150955Z 21013KT 9999 FEW015 FEW099 SCT300 26/24 Q1020 RMK CB TOP DSNT NW
Conditions at: TXKF (BERMUDA NAS , BM) observed 0955 UTC 15 July 2019
Temperature: 26.0°C (79°F)
Dewpoint: 24.0°C (75°F) [RH = 89%]
Pressure (altimeter): 30.12 inches Hg (1020.0 mb)
Winds: from the SSW (210 degrees) at 15 MPH (13 knots; 6.7 m/s)
Visibility: 6 or more miles (10+ km)
Ceiling: at least 12,000 feet AGL
Clouds: few clouds at 1500 feet AGL
few clouds at 9900 feet AGL
scattered clouds at 30000 feet AGL
Weather: no significant weather observed at this time

METAR text: TXKF 150855Z 22011KT 9999 FEW015 SCT100 SCT300 26/24 Q1020
Conditions at: TXKF (BERMUDA NAS , BM) observed 0855 UTC 15 July 2019
Temperature: 26.0°C (79°F)
Dewpoint: 24.0°C (75°F) [RH = 89%]
Pressure (altimeter): 30.12 inches Hg (1020.0 mb)
Winds: from the SW (220 degrees) at 13 MPH (11 knots; 5.7 m/s)
Visibility: 6 or more miles (10+ km)
Ceiling: at least 12,000 feet AGL
Clouds: few clouds at 1500 feet AGL
scattered clouds at 10000 feet AGL
scattered clouds at 30000 feet AGL
Weather: no significant weather observed at this time

METAR text: TXKF 150755Z 22012KT 9999 FEW016 SCT300 26/24 Q1019 RMK DSNT LTG N
Conditions at: TXKF (BERMUDA NAS , BM) observed 0755 UTC 15 July 2019
Temperature: 26.0°C (79°F)
Dewpoint: 24.0°C (75°F) [RH = 89%]
Pressure (altimeter): 30.09 inches Hg (1019.0 mb)
Winds: from the SW (220 degrees) at 14 MPH (12 knots; 6.2 m/s)
Visibility: 6 or more miles (10+ km)
Ceiling: at least 12,000 feet AGL
Clouds: few clouds at 1600 feet AGL
scattered clouds at 30000 feet AGL
Weather: no significant weather observed at this time

METAR text: TXKF 150655Z 22012KT 9999 FEW016 SCT300 27/24 Q1020
Conditions at: TXKF (BERMUDA NAS , BM) observed 0655 UTC 15 July 2019
Temperature: 27.0°C (81°F)
Dewpoint: 24.0°C (75°F) [RH = 84%]
Pressure (altimeter): 30.12 inches Hg (1020.0 mb)
Winds: from the SW (220 degrees) at 14 MPH (12 knots; 6.2 m/s)
Visibility: 6 or more miles (10+ km)
Ceiling: at least 12,000 feet AGL
Clouds: few clouds at 1600 feet AGL
scattered clouds at 30000 feet AGL
Weather: no significant weather observed at this time

METAR text: TXKF 150555Z 22013KT 9999 FEW016 SCT300 27/24 Q1020
Conditions at: TXKF (BERMUDA NAS , BM) observed 0555 UTC 15 July 2019
Temperature: 27.0°C (81°F)
Dewpoint: 24.0°C (75°F) [RH = 84%]
Pressure (altimeter): 30.12 inches Hg (1020.0 mb)
Winds: from the SW (220 degrees) at 15 MPH (13 knots; 6.7 m/s)
Visibility: 6 or more miles (10+ km)
Ceiling: at least 12,000 feet AGL
Clouds: few clouds at 1600 feet AGL
scattered clouds at 30000 feet AGL
Weather: no significant weather observed at this time

METAR text: TXKF 150455Z 21014KT 9999 SCT016 BKN300 27/24 Q1020 RMK DSNT LTG NW-NE
Conditions at: TXKF (BERMUDA NAS , BM) observed 0455 UTC 15 July 2019
Temperature: 27.0°C (81°F)
Dewpoint: 24.0°C (75°F) [RH = 84%]
Pressure (altimeter): 30.12 inches Hg (1020.0 mb)
Winds: from the SSW (210 degrees) at 16 MPH (14 knots; 7.2 m/s)
Visibility: 6 or more miles (10+ km)
Ceiling: 30000 feet AGL
Clouds: scattered clouds at 1600 feet AGL
broken clouds at 30000 feet AGL
Weather: no significant weather observed at this time

METAR text: TXKF 150355Z 20015KT 9999 FEW017 BKN300 27/24 Q1020 RMK DSNT LTG NW-N
Conditions at: TXKF (BERMUDA NAS , BM) observed 0355 UTC 15 July 2019
Temperature: 27.0°C (81°F)
Dewpoint: 24.0°C (75°F) [RH = 84%]
Pressure (altimeter): 30.12 inches Hg (1020.0 mb)
Winds: from the SSW (200 degrees) at 17 MPH (15 knots; 7.7 m/s)
Visibility: 6 or more miles (10+ km)
Ceiling: 30000 feet AGL
Clouds: few clouds at 1700 feet AGL
broken clouds at 30000 feet AGL
Weather: no significant weather observed at this time

METAR text: TXKF 150255Z 21013KT 9999 FEW017 BKN300 27/24 Q1021
Conditions at: TXKF (BERMUDA NAS , BM) observed 0255 UTC 15 July 2019
Temperature: 27.0°C (81°F)
Dewpoint: 24.0°C (75°F) [RH = 84%]
Pressure (altimeter): 30.15 inches Hg (1021.0 mb)
Winds: from the SSW (210 degrees) at 15 MPH (13 knots; 6.7 m/s)
Visibility: 6 or more miles (10+ km)
Ceiling: 30000 feet AGL
Clouds: few clouds at 1700 feet AGL
broken clouds at 30000 feet AGL
Weather: no significant weather observed at this time

METAR text: TXKF 150155Z 22012KT 9999 SCT017 BKN300 27/24 Q1021
Conditions at: TXKF (BERMUDA NAS , BM) observed 0155 UTC 15 July 2019
Temperature: 27.0°C (81°F)
Dewpoint: 24.0°C (75°F) [RH = 84%]
Pressure (altimeter): 30.15 inches Hg (1021.0 mb)
Winds: from the SW (220 degrees) at 14 MPH (12 knots; 6.2 m/s)
Visibility: 6 or more miles (10+ km)
Ceiling: 30000 feet AGL
Clouds: scattered clouds at 1700 feet AGL
broken clouds at 30000 feet AGL
Weather: no significant weather observed at this time

METAR text: TXKF 150055Z 21012KT 9999 FEW020 SCT300 27/24 Q1021
Conditions at: TXKF (BERMUDA NAS , BM) observed 0055 UTC 15 July 2019
Temperature: 27.0°C (81°F)
Dewpoint: 24.0°C (75°F) [RH = 84%]
Pressure (altimeter): 30.15 inches Hg (1021.0 mb)
Winds: from the SSW (210 degrees) at 14 MPH (12 knots; 6.2 m/s)
Visibility: 6 or more miles (10+ km)
Ceiling: at least 12,000 feet AGL
Clouds: few clouds at 2000 feet AGL
scattered clouds at 30000 feet AGL
Weather: no significant weather observed at this time

METAR text: TXKF 142355Z 22010KT 9999 FEW019 FEW030 SCT300 27/24 Q1020
Conditions at: TXKF (BERMUDA NAS , BM) observed 2355 UTC 14 July 2019
Temperature: 27.0°C (81°F)
Dewpoint: 24.0°C (75°F) [RH = 84%]
Pressure (altimeter): 30.12 inches Hg (1020.0 mb)
Winds: from the SW (220 degrees) at 12 MPH (10 knots; 5.1 m/s)
Visibility: 6 or more miles (10+ km)
Ceiling: at least 12,000 feet AGL
Clouds: few clouds at 1900 feet AGL
few clouds at 3000 feet AGL
scattered clouds at 30000 feet AGL
Weather: no significant weather observed at this time

METAR text: TXKF 142255Z 21012KT 9999 FEW020 SCT033 SCT300 28/24 Q1020
Conditions at: TXKF (BERMUDA NAS , BM) observed 2255 UTC 14 July 2019
Temperature: 28.0°C (82°F)
Dewpoint: 24.0°C (75°F) [RH = 79%]
Pressure (altimeter): 30.12 inches Hg (1020.0 mb)
Winds: from the SSW (210 degrees) at 14 MPH (12 knots; 6.2 m/s)
Visibility: 6 or more miles (10+ km)
Ceiling: at least 12,000 feet AGL
Clouds: few clouds at 2000 feet AGL
scattered clouds at 3300 feet AGL
scattered clouds at 30000 feet AGL
Weather: no significant weather observed at this time

METAR text: TXKF 142155Z 21012KT 9999 FEW018 SCT300 29/25 Q1020
Conditions at: TXKF (BERMUDA NAS , BM) observed 2155 UTC 14 July 2019
Temperature: 29.0°C (84°F)
Dewpoint: 25.0°C (77°F) [RH = 79%]
Pressure (altimeter): 30.12 inches Hg (1020.0 mb)
Winds: from the SSW (210 degrees) at 14 MPH (12 knots; 6.2 m/s)
Visibility: 6 or more miles (10+ km)
Ceiling: at least 12,000 feet AGL
Clouds: few clouds at 1800 feet AGL
scattered clouds at 30000 feet AGL
Weather: no significant weather observed at this time

METAR text: TXKF 142055Z 21012KT 9999 FEW018 29/24 Q1020
Conditions at: TXKF (BERMUDA NAS , BM) observed 2055 UTC 14 July 2019
Temperature: 29.0°C (84°F)
Dewpoint: 24.0°C (75°F) [RH = 74%]
Pressure (altimeter): 30.12 inches Hg (1020.0 mb)
Winds: from the SSW (210 degrees) at 14 MPH (12 knots; 6.2 m/s)
Visibility: 6 or more miles (10+ km)
Ceiling: at least 12,000 feet AGL
Clouds: few clouds at 1800 feet AGL
Weather: no significant weather observed at this time

METAR text: TXKF 141955Z 22013KT 9999 FEW015 29/24 Q1020
Conditions at: TXKF (BERMUDA NAS , BM) observed 1955 UTC 14 July 2019
Temperature: 29.0°C (84°F)
Dewpoint: 24.0°C (75°F) [RH = 74%]
Pressure (altimeter): 30.12 inches Hg (1020.0 mb)
Winds: from the SW (220 degrees) at 15 MPH (13 knots; 6.7 m/s)
Visibility: 6 or more miles (10+ km)
Ceiling: at least 12,000 feet AGL
Clouds: few clouds at 1500 feet AGL
Weather: no significant weather observed at this time

METAR text: TXKF 141855Z 21015KT 9999 SCT020 29/24 Q1020
Conditions at: TXKF (BERMUDA NAS , BM) observed 1855 UTC 14 July 2019
Temperature: 29.0°C (84°F)
Dewpoint: 24.0°C (75°F) [RH = 74%]
Pressure (altimeter): 30.12 inches Hg (1020.0 mb)
Winds: from the SSW (210 degrees) at 17 MPH (15 knots; 7.7 m/s)
Visibility: 6 or more miles (10+ km)
Ceiling: at least 12,000 feet AGL
Clouds: scattered clouds at 2000 feet AGL
Weather: no significant weather observed at this time

METAR text: TXKF 141755Z 21014KT 9999 FEW022 30/24 Q1021
Conditions at: TXKF (BERMUDA NAS , BM) observed 1755 UTC 14 July 2019
Temperature: 30.0°C (86°F)
Dewpoint: 24.0°C (75°F) [RH = 70%]
Pressure (altimeter): 30.15 inches Hg (1021.0 mb)
Winds: from the SSW (210 degrees) at 16 MPH (14 knots; 7.2 m/s)
Visibility: 6 or more miles (10+ km)
Ceiling: at least 12,000 feet AGL
Clouds: few clouds at 2200 feet AGL
Weather: no significant weather observed at this time

METAR text: TXKF 141655Z 21013KT 9999 FEW021 30/24 Q1021
Conditions at: TXKF (BERMUDA NAS , BM) observed 1655 UTC 14 July 2019
Temperature: 30.0°C (86°F)
Dewpoint: 24.0°C (75°F) [RH = 70%]
Pressure (altimeter): 30.15 inches Hg (1021.0 mb)
Winds: from the SSW (210 degrees) at 15 MPH (13 knots; 6.7 m/s)
Visibility: 6 or more miles (10+ km)
Ceiling: at least 12,000 feet AGL
Clouds: few clouds at 2100 feet AGL
Weather: no significant weather observed at this time

METAR text: TXKF 141555Z 20013KT 9999 FEW022 29/23 Q1021
Conditions at: TXKF (BERMUDA NAS , BM) observed 1555 UTC 14 July 2019
Temperature: 29.0°C (84°F)
Dewpoint: 23.0°C (73°F) [RH = 70%]
Pressure (altimeter): 30.15 inches Hg (1021.0 mb)
Winds: from the SSW (200 degrees) at 15 MPH (13 knots; 6.7 m/s)
Visibility: 6 or more miles (10+ km)
Ceiling: at least 12,000 feet AGL
Clouds: few clouds at 2200 feet AGL
Weather: no significant weather observed at this time

METAR text: TXKF 141455Z 21012KT 9999 FEW020 29/24 Q1021
Conditions at: TXKF (BERMUDA NAS , BM) observed 1455 UTC 14 July 2019
Temperature: 29.0°C (84°F)
Dewpoint: 24.0°C (75°F) [RH = 74%]
Pressure (altimeter): 30.15 inches Hg (1021.0 mb)
Winds: from the SSW (210 degrees) at 14 MPH (12 knots; 6.2 m/s)
Visibility: 6 or more miles (10+ km)
Ceiling: at least 12,000 feet AGL
Clouds: few clouds at 2000 feet AGL
Weather: no significant weather observed at this time

Forecast for: TXKF (BERMUDA NAS , BM)
Text: TAF TXKF 152334Z 1600/1624 24010KT 9999 VCSH SCT018 BKN300
Forecast period: 0000 UTC 16 July 2019 to 0000 UTC 17 July 2019
Forecast type: FROM: standard forecast or significant change
Winds: from the WSW (240 degrees) at 12 MPH (10 knots; 5.1 m/s)
Visibility: 6 or more miles 10+ km)
Ceiling: 30000 feet AGL
Clouds: scattered clouds at 1800 feet AGL
broken clouds at 30000 feet AGL
Weather: VCSH  (showers in vicinity)
Text: PROB30
Forecast period: 0400 UTC 16 July 2019 to 0000 UTC 17 July 2019
Forecast type: TEMPORARY: The following changes expected for less than half the time period
Visibility: 2.98 miles (4.80 km)
Ceiling: 1400 feet AGL
Clouds: broken clouds at 1400 feet AGL
Weather: SHRA  (rain showers)